Connecticut River @ Thompsonville, Ct

Connecticut River at Thompsonville
 Total Drainage Area: 9,661 sq. miles 
 Drainage Area Controlled by Corps Dams: 1,431 sq. miles (15%) 
 Warning Flow/Stage: 78,280 cfs / 14.5 feet 
 Flood Flow/Stage: 156,960 cfs / 19.2 feet 
Date Time
(Eastern)
Stage
(ft)
Flow
(cfs)
CSM
May-28 12:30 pm 8.60 9,194 1.0
May-28 11:30 am 8.62 9,371 1.0
May-28 10:30 am 8.63 9,460 1.0
May-28 09:30 am 8.65 9,639 1.0
May-28 08:30 am 8.67 9,820 1.0
May-28 07:30 am 8.67 9,820 1.0
May-28 06:30 am 8.68 9,911 1.0
May-28 05:30 am 8.68 9,911 1.0
May-28 04:30 am 8.67 9,820 1.0
May-28 03:30 am 8.63 9,460 1.0
May-28 02:30 am 8.64 9,550 1.0
May-28 01:30 am 8.64 9,550 1.0
May-28 12:30 am 8.65 9,639 1.0
May-27 11:30 pm 8.65 9,639 1.0
May-27 10:30 pm 8.65 9,639 1.0
May-27 09:30 pm 8.66 9,729 1.0
May-27 08:30 pm 8.69 10,002 1.0
May-27 07:30 pm 8.72 10,277 1.1
May-27 06:30 pm 8.72 10,277 1.1
May-27 05:30 pm 8.72 10,277 1.1
May-27 04:30 pm 8.71 10,185 1.1
May-27 03:30 pm 8.69 10,002 1.0
May-27 02:30 pm 8.69 10,002 1.0
May-27 01:30 pm 8.66 9,729 1.0
May-27 12:30 pm 8.64 9,550 1.0
Report Generated May 28, 2022 05:34 pm